Portada
METAR-TAF:

METAR-TAF

Aeroports :

Karachi, Pakistan

latitud: 24-54N, longitud: 067-08E, altitud: 21 m

Observació

L'informe es va fer fa 27 minuts, a les 19:00 UTC
Vent 4 kt del Nord-Est
Temperatura 20°C
Humitat 88%
Pressió 1011 hPa
Visibilitat: 6000 m

METAR: OPKC 271900Z 04004KT 6000 NSC 20/18 Q1011 NOSIG

Hora: 00:27 (19:27 UTC)

Pronòstic

L'informe es va fer fa 3 hores i 57 minuts, a les 15:30 UTC
Pronòstic vàlid del 27 a les 18 UTC al 28 a les 24 UTC
Vent 5 kt del Nord-Est
Visibilitat: 4000 m
fum
Temporalment
l' 28 a les 00 UTC al 28 a les 05 UTC
Vent 3 kt amb direcció variable
Visibilitat: 1500 m
Núvols disperses a una alçada de 2000 ft
boirina
A partir de les 28 a les 0700 UTC
Vent 10 kt del Oest
Visibilitat: 6000 m
Evolucionant progressivament
l' 27 a les 17 UTC al 27 a les 19 UTC
Vent 5 kt del Nord-Est
Visibilitat: 4000 m
fum

TAF: OPKC 271530Z 2718/2824 04005KT 4000 FU NSC TEMPO 2800/2805 VRB03KT 1500 BR SCT020 FM280700 26010KT 6000 NSC BECMG 2717/2719 04005KT 4000 FU NSC

Observacions i pronòstics meteorològics de més de 4000 aeroports (METAR i TAF).

Les estacions disponibles són els punts grocs i vermells al mapa.

Posi el ratolí al punt desitjat per veure el nom de l'estació.

Feu clic per veure les observacions i els pronòstics meteorològics.

Per canviar el mapa: feu clic els botons verds amb una creu de color negre per apropar; al botó verd amb un guió per allunyar la imatge; o en les fletxes verdes per a mapes adjacents.


METAR-TAF: